首页
METAR-TAF:

METAR-TAF

机场 :

迪拜国际机场

杜拜, 阿拉伯联合酋长国

纬度: 25-15-10N, 经度: 055-21-52E, 海拔: 8米

当前天气观测

该预报发布于1小时和3分钟前的00:00 UTC
风速7节,风向南转西南,在西南之间变化
温度 35°C
湿度 30%
气压 1004 hPa
能见度10公里或以上
1500米以下无云,无积雨云

METAR: OMDB 310000Z 21007KT 170V230 CAVOK 35/15 Q1004 NOSIG

时间: 05:03 (01:03 UTC)

预报

该预报发布于2小时和11分钟前的22:52 UTC
预报有效从31日的 00点(UTC)到 01日的 06点(UTC)
风速10节,风向
能見度: 7000
几率 30% :
短暂存在
从 31日的 02点(UTC)到 31日的 08点(UTC)
风速15节,风向,有时为25节阵风
能見度: 4000
高吹尘
成为
从 31日的 07点(UTC)到 31日的 09点(UTC)
风速15节,风向西
成为
从 31日的 15点(UTC)到 31日的 17点(UTC)
风速5节,风向东南
成为
从 01日的 02点(UTC)到 01日的 04点(UTC)
风速15节,风向

TAF: OMDB 302252Z 3100/0106 18010KT 7000 NSC PROB30 TEMPO 3102/3108 17015G25KT 4000 BLDU BECMG 3107/3109 28015KT BECMG 3115/3117 14005KT BECMG 0102/0104 18015KT

超过4000个机场的气象观测和天气预报(METAR&TAF报告)。

可查询的气象台以黄色和红色小点在地图上表示。

将鼠标移到小点上方,可查看气象台名称。

然后点击查看天气观测和预报。

如需切换地图:点击带黑十字的绿色按钮放大地图;点击带横线的绿色按钮缩小地图;或者点击绿色箭头查看邻近地区的地图。


METAR-TAF: